Station Historical Data
Daily Summary for January 30, 2018 Units:  Both    English   Metric
« Previous Day
Next Day »
Daily Weekly Monthly Yearly Custom
  High: Low: Average:
Temperature: TemperatureF °F /  -17.8 °C 5.4 °F /  -14.8 °C 15.8 °F /  -9 °C
Dew Point: DewpointF °F /  -17.8 °C 0.4 °F /  -17.6 °C 10.7 °F /  -11.8 °C
Humidity: Humidity% 68% 80%
Wind Speed: WindSpeedMPHmph /  0km/h - 4.1mph /  6.6km/h
Wind Gust: WindSpeedGustMPHmph /  0km/h - -
Wind- - West
Pressure: PressureIn in /  0 hPa 30.11 in /  1019.5 hPa -
Precipitation: 0.00 in /  0 mm    
Historical Graphs
 
 
Tabular Data for January 30, 2018
Time Temperature Dew Point Pressure Wind Wind Speed Wind Gust Humidity Rainfall Rate (Hourly)
TemperatureF °F /  -17.8 °C DewpointF °F /  -17.8 °C PressureInin /  0hPa Calm     Humidity% HourlyPrecipInin /  0mm
00:04 21.9 °F /  -5.6 °C 19.2 °F /  -7.1 °C 30.11in /  1019.5hPa NNW 6.0mph /  9.7km/h 11.0mph /  17.7km/h 89% 0.00in /  0mm
00:09 21.7 °F /  -5.7 °C 19.0 °F /  -7.2 °C 30.11in /  1019.5hPa North 5.0mph /  8km/h 10.0mph /  16.1km/h 89% 0.00in /  0mm
00:14 21.6 °F /  -5.8 °C 18.9 °F /  -7.3 °C 30.11in /  1019.5hPa NNW 5.0mph /  8km/h 10.0mph /  16.1km/h 89% 0.00in /  0mm
00:19 21.6 °F /  -5.8 °C 18.9 °F /  -7.3 °C 30.11in /  1019.5hPa NNE 5.0mph /  8km/h 9.0mph /  14.5km/h 89% 0.00in /  0mm
00:24 21.5 °F /  -5.8 °C 18.8 °F /  -7.3 °C 30.11in /  1019.5hPa North 8.0mph /  12.9km/h 10.0mph /  16.1km/h 89% 0.00in /  0mm
00:29 21.4 °F /  -5.9 °C 18.7 °F /  -7.4 °C 30.11in /  1019.5hPa NW 5.0mph /  8km/h 9.0mph /  14.5km/h 89% 0.00in /  0mm
00:34 21.3 °F /  -5.9 °C 18.6 °F /  -7.4 °C 30.11in /  1019.5hPa NNE 6.0mph /  9.7km/h 9.0mph /  14.5km/h 89% 0.00in /  0mm
00:39 21.2 °F /  -6 °C 18.5 °F /  -7.5 °C 30.11in /  1019.5hPa NNE 5.0mph /  8km/h 10.0mph /  16.1km/h 89% 0.00in /  0mm
00:44 21.2 °F /  -6 °C 18.5 °F /  -7.5 °C 30.11in /  1019.5hPa NNE 5.0mph /  8km/h 10.0mph /  16.1km/h 89% 0.00in /  0mm
00:49 21.3 °F /  -5.9 °C 18.6 °F /  -7.4 °C 30.11in /  1019.5hPa NNE 4.0mph /  6.4km/h 9.0mph /  14.5km/h 89% 0.00in /  0mm
00:54 21.3 °F /  -5.9 °C 18.6 °F /  -7.4 °C 30.11in /  1019.5hPa NNE 4.0mph /  6.4km/h 7.0mph /  11.3km/h 89% 0.00in /  0mm
00:59 21.3 °F /  -5.9 °C 18.6 °F /  -7.4 °C 30.11in /  1019.5hPa NNE 7.0mph /  11.3km/h 7.0mph /  11.3km/h 89% 0.00in /  0mm
01:04 21.3 °F /  -5.9 °C 18.6 °F /  -7.4 °C 30.11in /  1019.5hPa North 2.0mph /  3.2km/h 7.0mph /  11.3km/h 89% 0.00in /  0mm
01:09 21.3 °F /  -5.9 °C 18.6 °F /  -7.4 °C 30.11in /  1019.5hPa North 5.0mph /  8km/h 7.0mph /  11.3km/h 89% 0.00in /  0mm
01:14 21.3 °F /  -5.9 °C 18.6 °F /  -7.4 °C 30.11in /  1019.5hPa NNW 3.0mph /  4.8km/h 11.0mph /  17.7km/h 89% 0.00in /  0mm
01:19 21.2 °F /  -6 °C 18.5 °F /  -7.5 °C 30.11in /  1019.5hPa NNE 3.0mph /  4.8km/h 7.0mph /  11.3km/h 89% 0.00in /  0mm
01:24 21.2 °F /  -6 °C 18.5 °F /  -7.5 °C 30.12in /  1019.9hPa NNE 3.0mph /  4.8km/h 6.0mph /  9.7km/h 89% 0.00in /  0mm
01:29 21.2 °F /  -6 °C 18.5 °F /  -7.5 °C 30.12in /  1019.9hPa NNE 6.0mph /  9.7km/h 8.0mph /  12.9km/h 89% 0.00in /  0mm
01:34 21.1 °F /  -6.1 °C 18.4 °F /  -7.6 °C 30.11in /  1019.5hPa North 3.0mph /  4.8km/h 6.0mph /  9.7km/h 89% 0.00in /  0mm
01:39 21.1 °F /  -6.1 °C 18.4 °F /  -7.6 °C 30.11in /  1019.5hPa NNE 4.0mph /  6.4km/h 6.0mph /  9.7km/h 89% 0.00in /  0mm
01:44 21.1 °F /  -6.1 °C 18.4 °F /  -7.6 °C 30.12in /  1019.9hPa NNE 3.0mph /  4.8km/h 5.0mph /  8km/h 89% 0.00in /  0mm
01:49 21.2 °F /  -6 °C 18.5 °F /  -7.5 °C 30.11in /  1019.5hPa North 2.0mph /  3.2km/h 5.0mph /  8km/h 89% 0.00in /  0mm
01:54 21.2 °F /  -6 °C 18.5 °F /  -7.5 °C 30.12in /  1019.9hPa NNW 2.0mph /  3.2km/h 5.0mph /  8km/h 89% 0.00in /  0mm
01:59 21.3 °F /  -5.9 °C 18.6 °F /  -7.4 °C 30.12in /  1019.9hPa NNW 2.0mph /  3.2km/h 7.0mph /  11.3km/h 89% 0.00in /  0mm
02:04 21.2 °F /  -6 °C 18.5 °F /  -7.5 °C 30.12in /  1019.9hPa NNE 2.0mph /  3.2km/h 5.0mph /  8km/h 89% 0.00in /  0mm
02:09 21.2 °F /  -6 °C 18.5 °F /  -7.5 °C 30.12in /  1019.9hPa North 3.0mph /  4.8km/h 7.0mph /  11.3km/h 89% 0.00in /  0mm
02:14 21.2 °F /  -6 °C 18.5 °F /  -7.5 °C 30.13in /  1020.2hPa North 1.0mph /  1.6km/h 7.0mph /  11.3km/h 89% 0.00in /  0mm
02:19 21.2 °F /  -6 °C 18.5 °F /  -7.5 °C 30.13in /  1020.2hPa NNW 3.0mph /  4.8km/h 6.0mph /  9.7km/h 89% 0.00in /  0mm
02:24 21.2 °F /  -6 °C 18.5 °F /  -7.5 °C 30.13in /  1020.2hPa NNW 2.0mph /  3.2km/h 4.0mph /  6.4km/h 89% 0.00in /  0mm
02:29 21.3 °F /  -5.9 °C 18.6 °F /  -7.4 °C 30.13in /  1020.2hPa NNW 4.0mph /  6.4km/h 6.0mph /  9.7km/h 89% 0.00in /  0mm
02:34 21.3 °F /  -5.9 °C 18.6 °F /  -7.4 °C 30.13in /  1020.2hPa North 3.0mph /  4.8km/h 5.0mph /  8km/h 89% 0.00in /  0mm
02:39 21.3 °F /  -5.9 °C 18.6 °F /  -7.4 °C 30.13in /  1020.2hPa North 2.0mph /  3.2km/h 5.0mph /  8km/h 89% 0.00in /  0mm
02:44 21.3 °F /  -5.9 °C 18.6 °F /  -7.4 °C 30.13in /  1020.2hPa North 2.0mph /  3.2km/h 5.0mph /  8km/h 89% 0.00in /  0mm
02:49 21.3 °F /  -5.9 °C 18.6 °F /  -7.4 °C 30.13in /  1020.2hPa North 2.0mph /  3.2km/h 5.0mph /  8km/h 89% 0.00in /  0mm
02:54 21.3 °F /  -5.9 °C 18.6 °F /  -7.4 °C 30.13in /  1020.2hPa North 2.0mph /  3.2km/h 7.0mph /  11.3km/h 89% 0.00in /  0mm
02:59 21.4 °F /  -5.9 °C 18.7 °F /  -7.4 °C 30.14in /  1020.5hPa NNW 3.0mph /  4.8km/h 8.0mph /  12.9km/h 89% 0.00in /  0mm
03:04 21.2 °F /  -6 °C 18.5 °F /  -7.5 °C 30.14in /  1020.5hPa North 4.0mph /  6.4km/h 8.0mph /  12.9km/h 89% 0.00in /  0mm
03:09 21.2 °F /  -6 °C 18.5 °F /  -7.5 °C 30.14in /  1020.5hPa North 3.0mph /  4.8km/h 8.0mph /  12.9km/h 89% 0.00in /  0mm
03:14 21.1 °F /  -6.1 °C 18.4 °F /  -7.6 °C 30.14in /  1020.5hPa NNW 3.0mph /  4.8km/h 6.0mph /  9.7km/h 89% 0.00in /  0mm
03:19 21.2 °F /  -6 °C 18.5 °F /  -7.5 °C 30.13in /  1020.2hPa NW 3.0mph /  4.8km/h 7.0mph /  11.3km/h 89% 0.00in /  0mm
03:24 21.1 °F /  -6.1 °C 18.1 °F /  -7.7 °C 30.14in /  1020.5hPa NNW 3.0mph /  4.8km/h 8.0mph /  12.9km/h 88% 0.00in /  0mm
03:29 20.9 °F /  -6.2 °C 17.9 °F /  -7.8 °C 30.14in /  1020.5hPa NNW 4.0mph /  6.4km/h 8.0mph /  12.9km/h 88% 0.00in /  0mm
03:34 20.9 °F /  -6.2 °C 17.9 °F /  -7.8 °C 30.14in /  1020.5hPa NW 3.0mph /  4.8km/h 10.0mph /  16.1km/h 88% 0.00in /  0mm
03:39 20.8 °F /  -6.2 °C 17.8 °F /  -7.9 °C 30.14in /  1020.5hPa NNW 2.0mph /  3.2km/h 8.0mph /  12.9km/h 88% 0.00in /  0mm
03:44 20.7 °F /  -6.3 °C 17.7 °F /  -7.9 °C 30.14in /  1020.5hPa NW 2.0mph /  3.2km/h 8.0mph /  12.9km/h 88% 0.00in /  0mm
03:49 20.6 °F /  -6.3 °C 17.6 °F /  -8 °C 30.15in /  1020.9hPa North 4.0mph /  6.4km/h 8.0mph /  12.9km/h 88% 0.00in /  0mm
03:54 20.5 °F /  -6.4 °C 17.5 °F /  -8.1 °C 30.14in /  1020.5hPa North 4.0mph /  6.4km/h 8.0mph /  12.9km/h 88% 0.00in /  0mm
03:59 20.4 °F /  -6.4 °C 17.4 °F /  -8.1 °C 30.14in /  1020.5hPa NNW 3.0mph /  4.8km/h 7.0mph /  11.3km/h 88% 0.00in /  0mm
04:04 20.5 °F /  -6.4 °C 17.5 °F /  -8.1 °C 30.15in /  1020.9hPa NNW 3.0mph /  4.8km/h 7.0mph /  11.3km/h 88% 0.00in /  0mm
04:09 20.4 °F /  -6.4 °C 17.4 °F /  -8.1 °C 30.15in /  1020.9hPa NNW 3.0mph /  4.8km/h 7.0mph /  11.3km/h 88% 0.00in /  0mm
04:14 20.5 °F /  -6.4 °C 17.5 °F /  -8.1 °C 30.15in /  1020.9hPa North 5.0mph /  8km/h 7.0mph /  11.3km/h 88% 0.00in /  0mm
04:19 20.4 °F /  -6.4 °C 17.4 °F /  -8.1 °C 30.15in /  1020.9hPa NW 3.0mph /  4.8km/h 12.0mph /  19.3km/h 88% 0.00in /  0mm
04:24 20.4 °F /  -6.4 °C 17.4 °F /  -8.1 °C 30.15in /  1020.9hPa NW 3.0mph /  4.8km/h 6.0mph /  9.7km/h 88% 0.00in /  0mm
04:29 20.4 °F /  -6.4 °C 17.4 °F /  -8.1 °C 30.15in /  1020.9hPa NNW 6.0mph /  9.7km/h 8.0mph /  12.9km/h 88% 0.00in /  0mm
04:34 20.3 °F /  -6.5 °C 17.3 °F /  -8.2 °C 30.16in /  1021.2hPa NW 6.0mph /  9.7km/h 11.0mph /  17.7km/h 88% 0.00in /  0mm
04:39 20.2 °F /  -6.6 °C 17.2 °F /  -8.2 °C 30.16in /  1021.2hPa NNW 3.0mph /  4.8km/h 9.0mph /  14.5km/h 88% 0.00in /  0mm
04:44 20.1 °F /  -6.6 °C 17.1 °F /  -8.3 °C 30.16in /  1021.2hPa NW 2.0mph /  3.2km/h 9.0mph /  14.5km/h 88% 0.00in /  0mm
04:49 20.1 °F /  -6.6 °C 17.1 °F /  -8.3 °C 30.16in /  1021.2hPa NW 2.0mph /  3.2km/h 6.0mph /  9.7km/h 88% 0.00in /  0mm
04:54 20.1 °F /  -6.6 °C 17.1 °F /  -8.3 °C 30.16in /  1021.2hPa NNW 3.0mph /  4.8km/h 6.0mph /  9.7km/h 88% 0.00in /  0mm
04:59 20.1 °F /  -6.6 °C 17.1 °F /  -8.3 °C 30.17in /  1021.6hPa NNW 3.0mph /  4.8km/h 7.0mph /  11.3km/h 88% 0.00in /  0mm
05:04 20.1 °F /  -6.6 °C 17.1 °F /  -8.3 °C 30.17in /  1021.6hPa NW 3.0mph /  4.8km/h 7.0mph /  11.3km/h 88% 0.00in /  0mm
05:09 20.1 °F /  -6.6 °C 17.1 °F /  -8.3 °C 30.17in /  1021.6hPa NW 4.0mph /  6.4km/h 9.0mph /  14.5km/h 88% 0.00in /  0mm
05:14 20.0 °F /  -6.7 °C 17.0 °F /  -8.3 °C 30.17in /  1021.6hPa WNW 7.0mph /  11.3km/h 9.0mph /  14.5km/h 88% 0.00in /  0mm
05:19 19.9 °F /  -6.7 °C 16.9 °F /  -8.4 °C 30.17in /  1021.6hPa NNW 5.0mph /  8km/h 7.0mph /  11.3km/h 88% 0.00in /  0mm
05:24 19.7 °F /  -6.8 °C 16.7 °F /  -8.5 °C 30.18in /  1021.9hPa NW 5.0mph /  8km/h 9.0mph /  14.5km/h 88% 0.00in /  0mm
05:29 19.6 °F /  -6.9 °C 16.4 °F /  -8.7 °C 30.18in /  1021.9hPa NW 5.0mph /  8km/h 9.0mph /  14.5km/h 87% 0.00in /  0mm
05:34 19.5 °F /  -6.9 °C 16.3 °F /  -8.7 °C 30.18in /  1021.9hPa NW 2.0mph /  3.2km/h 6.0mph /  9.7km/h 87% 0.00in /  0mm
05:39 19.5 °F /  -6.9 °C 16.3 °F /  -8.7 °C 30.18in /  1021.9hPa NW 6.0mph /  9.7km/h 9.0mph /  14.5km/h 87% 0.00in /  0mm
05:44 19.5 °F /  -6.9 °C 16.3 °F /  -8.7 °C 30.18in /  1021.9hPa NW 6.0mph /  9.7km/h 6.0mph /  9.7km/h 87% 0.00in /  0mm
05:49 19.4 °F /  -7 °C 16.2 °F /  -8.8 °C 30.18in /  1021.9hPa NNW 4.0mph /  6.4km/h 10.0mph /  16.1km/h 87% 0.00in /  0mm
05:54 19.3 °F /  -7.1 °C 16.1 °F /  -8.8 °C 30.18in /  1021.9hPa NW 4.0mph /  6.4km/h 7.0mph /  11.3km/h 87% 0.00in /  0mm
05:59 19.3 °F /  -7.1 °C 16.1 °F /  -8.8 °C 30.18in /  1021.9hPa NNW 4.0mph /  6.4km/h 11.0mph /  17.7km/h 87% 0.00in /  0mm
06:04 19.1 °F /  -7.2 °C 15.9 °F /  -8.9 °C 30.19in /  1022.2hPa NNW 4.0mph /  6.4km/h 11.0mph /  17.7km/h 87% 0.00in /  0mm
06:09 19.1 °F /  -7.2 °C 15.9 °F /  -8.9 °C 30.19in /  1022.2hPa NNW 3.0mph /  4.8km/h 9.0mph /  14.5km/h 87% 0.00in /  0mm
06:14 19.2 °F /  -7.1 °C 16.0 °F /  -8.9 °C 30.19in /  1022.2hPa NNW 3.0mph /  4.8km/h 6.0mph /  9.7km/h 87% 0.00in /  0mm
06:19 19.2 °F /  -7.1 °C 16.0 °F /  -8.9 °C 30.20in /  1022.6hPa NNW 2.0mph /  3.2km/h 6.0mph /  9.7km/h 87% 0.00in /  0mm
06:24 19.1 °F /  -7.2 °C 15.9 °F /  -8.9 °C 30.20in /  1022.6hPa NW 2.0mph /  3.2km/h 8.0mph /  12.9km/h 87% 0.00in /  0mm
06:29 19.1 °F /  -7.2 °C 15.9 °F /  -8.9 °C 30.20in /  1022.6hPa NNW 3.0mph /  4.8km/h 8.0mph /  12.9km/h 87% 0.00in /  0mm
06:34 19.0 °F /  -7.2 °C 15.8 °F /  -9 °C 30.20in /  1022.6hPa NNW 4.0mph /  6.4km/h 9.0mph /  14.5km/h 87% 0.00in /  0mm
06:39 18.9 °F /  -7.3 °C 15.7 °F /  -9.1 °C 30.21in /  1022.9hPa NW 5.0mph /  8km/h 11.0mph /  17.7km/h 87% 0.00in /  0mm
06:44 18.6 °F /  -7.4 °C 15.4 °F /  -9.2 °C 30.21in /  1022.9hPa NW 6.0mph /  9.7km/h 14.0mph /  22.5km/h 87% 0.00in /  0mm
06:49 18.5 °F /  -7.5 °C 15.3 °F /  -9.3 °C 30.21in /  1022.9hPa North 4.0mph /  6.4km/h 11.0mph /  17.7km/h 87% 0.00in /  0mm
06:54 18.4 °F /  -7.6 °C 15.2 °F /  -9.3 °C 30.21in /  1022.9hPa NW 3.0mph /  4.8km/h 8.0mph /  12.9km/h 87% 0.00in /  0mm
06:59 18.3 °F /  -7.6 °C 15.1 °F /  -9.4 °C 30.21in /  1022.9hPa NNW 5.0mph /  8km/h 9.0mph /  14.5km/h 87% 0.00in /  0mm
07:04 18.1 °F /  -7.7 °C 14.9 °F /  -9.5 °C 30.22in /  1023.2hPa NNW 4.0mph /  6.4km/h 10.0mph /  16.1km/h 87% 0.00in /  0mm
07:09 18.0 °F /  -7.8 °C 14.8 °F /  -9.6 °C 30.22in /  1023.2hPa NNW 5.0mph /  8km/h 11.0mph /  17.7km/h 87% 0.00in /  0mm
07:14 17.9 °F /  -7.8 °C 14.7 °F /  -9.6 °C 30.22in /  1023.2hPa NNW 4.0mph /  6.4km/h 12.0mph /  19.3km/h 87% 0.00in /  0mm
07:19 17.8 °F /  -7.9 °C 14.3 °F /  -9.8 °C 30.22in /  1023.2hPa WNW 7.0mph /  11.3km/h 9.0mph /  14.5km/h 86% 0.00in /  0mm
07:24 17.8 °F /  -7.9 °C 14.3 °F /  -9.8 °C 30.23in /  1023.6hPa NNW 4.0mph /  6.4km/h 10.0mph /  16.1km/h 86% 0.00in /  0mm
07:29 17.8 °F /  -7.9 °C 14.3 °F /  -9.8 °C 30.23in /  1023.6hPa NNW 6.0mph /  9.7km/h 11.0mph /  17.7km/h 86% 0.00in /  0mm
07:34 17.8 °F /  -7.9 °C 14.3 °F /  -9.8 °C 30.23in /  1023.6hPa NNW 5.0mph /  8km/h 11.0mph /  17.7km/h 86% 0.00in /  0mm
07:39 17.8 °F /  -7.9 °C 14.3 °F /  -9.8 °C 30.23in /  1023.6hPa NNW 5.0mph /  8km/h 12.0mph /  19.3km/h 86% 0.00in /  0mm
07:44 17.8 °F /  -7.9 °C 14.3 °F /  -9.8 °C 30.24in /  1023.9hPa NNW 4.0mph /  6.4km/h 12.0mph /  19.3km/h 86% 0.00in /  0mm
07:49 17.8 °F /  -7.9 °C 14.3 °F /  -9.8 °C 30.24in /  1023.9hPa NW 4.0mph /  6.4km/h 10.0mph /  16.1km/h 86% 0.00in /  0mm
07:54 17.7 °F /  -7.9 °C 14.2 °F /  -9.9 °C 30.24in /  1023.9hPa NW 6.0mph /  9.7km/h 8.0mph /  12.9km/h 86% 0.00in /  0mm
07:59 17.4 °F /  -8.1 °C 13.9 °F /  -10.1 °C 30.24in /  1023.9hPa NW 8.0mph /  12.9km/h 11.0mph /  17.7km/h 86% 0.00in /  0mm
08:04 17.1 °F /  -8.3 °C 13.6 °F /  -10.2 °C 30.25in /  1024.3hPa NNW 6.0mph /  9.7km/h 11.0mph /  17.7km/h 86% 0.00in /  0mm
08:09 16.8 °F /  -8.4 °C 13.3 °F /  -10.4 °C 30.25in /  1024.3hPa NW 5.0mph /  8km/h 11.0mph /  17.7km/h 86% 0.00in /  0mm
08:14 16.6 °F /  -8.6 °C 13.1 °F /  -10.5 °C 30.25in /  1024.3hPa NW 6.0mph /  9.7km/h 13.0mph /  20.9km/h 86% 0.00in /  0mm
08:19 16.4 °F /  -8.7 °C 12.9 °F /  -10.6 °C 30.26in /  1024.6hPa NW 6.0mph /  9.7km/h 13.0mph /  20.9km/h 86% 0.00in /  0mm
08:24 16.4 °F /  -8.7 °C 12.7 °F /  -10.7 °C 30.26in /  1024.6hPa NW 5.0mph /  8km/h 13.0mph /  20.9km/h 85% 0.00in /  0mm
08:29 16.3 °F /  -8.7 °C 12.6 °F /  -10.8 °C 30.26in /  1024.6hPa NNW 4.0mph /  6.4km/h 10.0mph /  16.1km/h 85% 0.00in /  0mm
08:34 16.3 °F /  -8.7 °C 12.6 °F /  -10.8 °C 30.26in /  1024.6hPa NNW 5.0mph /  8km/h 9.0mph /  14.5km/h 85% 0.00in /  0mm
08:39 16.3 °F /  -8.7 °C 12.6 °F /  -10.8 °C 30.27in /  1024.9hPa NW 7.0mph /  11.3km/h 10.0mph /  16.1km/h 85% 0.00in /  0mm
08:44 16.2 °F /  -8.8 °C 12.2 °F /  -11 °C 30.27in /  1024.9hPa NW 5.0mph /  8km/h 11.0mph /  17.7km/h 84% 0.00in /  0mm
08:49 16.4 °F /  -8.7 °C 12.4 °F /  -10.9 °C 30.27in /  1024.9hPa NW 4.0mph /  6.4km/h 11.0mph /  17.7km/h 84% 0.00in /  0mm
08:54 16.5 °F /  -8.6 °C 12.5 °F /  -10.8 °C 30.27in /  1024.9hPa NW 5.0mph /  8km/h 10.0mph /  16.1km/h 84% 0.00in /  0mm
08:59 16.8 °F /  -8.4 °C 12.8 °F /  -10.7 °C 30.27in /  1024.9hPa NW 3.0mph /  4.8km/h 9.0mph /  14.5km/h 84% 0.00in /  0mm
09:04 17.0 °F /  -8.3 °C 12.7 °F /  -10.7 °C 30.28in /  1025.3hPa North 2.0mph /  3.2km/h 10.0mph /  16.1km/h 83% 0.00in /  0mm
09:09 17.0 °F /  -8.3 °C 12.7 °F /  -10.7 °C 30.28in /  1025.3hPa NW 3.0mph /  4.8km/h 11.0mph /  17.7km/h 83% 0.00in /  0mm
09:14 16.9 °F /  -8.4 °C 12.6 °F /  -10.8 °C 30.28in /  1025.3hPa NW 2.0mph /  3.2km/h 10.0mph /  16.1km/h 83% 0.00in /  0mm
09:19 17.0 °F /  -8.3 °C 12.7 °F /  -10.7 °C 30.28in /  1025.3hPa NW 4.0mph /  6.4km/h 10.0mph /  16.1km/h 83% 0.00in /  0mm
09:24 17.0 °F /  -8.3 °C 12.7 °F /  -10.7 °C 30.28in /  1025.3hPa NW 4.0mph /  6.4km/h 10.0mph /  16.1km/h 83% 0.00in /  0mm
09:29 17.0 °F /  -8.3 °C 12.7 °F /  -10.7 °C 30.29in /  1025.6hPa NW 6.0mph /  9.7km/h 10.0mph /  16.1km/h 83% 0.00in /  0mm
09:34 16.9 °F /  -8.4 °C 12.4 °F /  -10.9 °C 30.29in /  1025.6hPa West 5.0mph /  8km/h 9.0mph /  14.5km/h 82% 0.00in /  0mm
09:39 17.0 °F /  -8.3 °C 12.5 °F /  -10.8 °C 30.29in /  1025.6hPa WNW 4.0mph /  6.4km/h 11.0mph /  17.7km/h 82% 0.00in /  0mm
09:44 17.1 °F /  -8.3 °C 12.6 °F /  -10.8 °C 30.30in /  1026hPa NW 6.0mph /  9.7km/h 11.0mph /  17.7km/h 82% 0.00in /  0mm
09:49 17.1 °F /  -8.3 °C 12.6 °F /  -10.8 °C 30.30in /  1026hPa WNW 5.0mph /  8km/h 11.0mph /  17.7km/h 82% 0.00in /  0mm
09:54 16.9 °F /  -8.4 °C 12.4 °F /  -10.9 °C 30.30in /  1026hPa WNW 6.0mph /  9.7km/h 10.0mph /  16.1km/h 82% 0.00in /  0mm
09:59 16.8 °F /  -8.4 °C 12.3 °F /  -10.9 °C 30.30in /  1026hPa WNW 6.0mph /  9.7km/h 11.0mph /  17.7km/h 82% 0.00in /  0mm
10:04 16.7 °F /  -8.5 °C 12.2 °F /  -11 °C 30.30in /  1026hPa WNW 6.0mph /  9.7km/h 11.0mph /  17.7km/h 82% 0.00in /  0mm
10:09 16.6 °F /  -8.6 °C 12.1 °F /  -11.1 °C 30.30in /  1026hPa WSW 11.0mph /  17.7km/h 14.0mph /  22.5km/h 82% 0.00in /  0mm
10:14 16.6 °F /  -8.6 °C 12.1 °F /  -11.1 °C 30.30in /  1026hPa NW 3.0mph /  4.8km/h 12.0mph /  19.3km/h 82% 0.00in /  0mm
10:19 16.8 °F /  -8.4 °C 12.3 °F /  -10.9 °C 30.31in /  1026.3hPa WNW 6.0mph /  9.7km/h 12.0mph /  19.3km/h 82% 0.00in /  0mm
10:24 16.8 °F /  -8.4 °C 12.0 °F /  -11.1 °C 30.31in /  1026.3hPa WNW 5.0mph /  8km/h 12.0mph /  19.3km/h 81% 0.00in /  0mm
10:29 16.7 °F /  -8.5 °C 11.9 °F /  -11.2 °C 30.31in /  1026.3hPa WNW 6.0mph /  9.7km/h 11.0mph /  17.7km/h 81% 0.00in /  0mm
10:34 16.7 °F /  -8.5 °C 11.9 °F /  -11.2 °C 30.31in /  1026.3hPa NW 8.0mph /  12.9km/h 8.0mph /  12.9km/h 81% 0.00in /  0mm
10:39 16.6 °F /  -8.6 °C 11.8 °F /  -11.2 °C 30.31in /  1026.3hPa WNW 6.0mph /  9.7km/h 12.0mph /  19.3km/h 81% 0.00in /  0mm
10:44 16.8 °F /  -8.4 °C 12.0 °F /  -11.1 °C 30.31in /  1026.3hPa West 6.0mph /  9.7km/h 10.0mph /  16.1km/h 81% 0.00in /  0mm
10:49 17.0 °F /  -8.3 °C 12.2 °F /  -11 °C 30.31in /  1026.3hPa SSW 4.0mph /  6.4km/h 9.0mph /  14.5km/h 81% 0.00in /  0mm
10:54 17.0 °F /  -8.3 °C 12.2 °F /  -11 °C 30.31in /  1026.3hPa WNW 5.0mph /  8km/h 9.0mph /  14.5km/h 81% 0.00in /  0mm
10:59 17.1 °F /  -8.3 °C 12.0 °F /  -11.1 °C 30.31in /  1026.3hPa WNW 5.0mph /  8km/h 10.0mph /  16.1km/h 80% 0.00in /  0mm
11:04 17.1 °F /  -8.3 °C 12.0 °F /  -11.1 °C 30.31in /  1026.3hPa WNW 5.0mph /  8km/h 11.0mph /  17.7km/h 80% 0.00in /  0mm
11:09 16.9 °F /  -8.4 °C 11.8 °F /  -11.2 °C 30.31in /  1026.3hPa West 6.0mph /  9.7km/h 12.0mph /  19.3km/h 80% 0.00in /  0mm
11:14 16.9 °F /  -8.4 °C 12.1 °F /  -11.1 °C 30.31in /  1026.3hPa WNW 6.0mph /  9.7km/h 12.0mph /  19.3km/h 81% 0.00in /  0mm
11:19 16.9 °F /  -8.4 °C 11.8 °F /  -11.2 °C 30.31in /  1026.3hPa West 5.0mph /  8km/h 11.0mph /  17.7km/h 80% 0.00in /  0mm
11:24 16.9 °F /  -8.4 °C 11.8 °F /  -11.2 °C 30.31in /  1026.3hPa WNW 6.0mph /  9.7km/h 11.0mph /  17.7km/h 80% 0.00in /  0mm
11:29 16.7 °F /  -8.5 °C 11.3 °F /  -11.5 °C 30.31in /  1026.3hPa WNW 6.0mph /  9.7km/h 12.0mph /  19.3km/h 79% 0.00in /  0mm
11:34 16.8 °F /  -8.4 °C 11.7 °F /  -11.3 °C 30.31in /  1026.3hPa WNW 6.0mph /  9.7km/h 10.0mph /  16.1km/h 80% 0.00in /  0mm
11:39 16.8 °F /  -8.4 °C 11.4 °F /  -11.4 °C 30.31in /  1026.3hPa WSW 4.0mph /  6.4km/h 10.0mph /  16.1km/h 79% 0.00in /  0mm
11:44 16.6 °F /  -8.6 °C 11.2 °F /  -11.6 °C 30.31in /  1026.3hPa NW 4.0mph /  6.4km/h 13.0mph /  20.9km/h 79% 0.00in /  0mm
11:49 16.7 °F /  -8.5 °C 11.3 °F /  -11.5 °C 30.31in /  1026.3hPa WNW 8.0mph /  12.9km/h 11.0mph /  17.7km/h 79% 0.00in /  0mm
11:54 17.1 °F /  -8.3 °C 11.7 °F /  -11.3 °C 30.30in /  1026hPa West 6.0mph /  9.7km/h 11.0mph /  17.7km/h 79% 0.00in /  0mm
11:59 18.0 °F /  -7.8 °C 12.6 °F /  -10.8 °C 30.30in /  1026hPa West 6.0mph /  9.7km/h 11.0mph /  17.7km/h 79% 0.00in /  0mm
12:04 18.8 °F /  -7.3 °C 13.4 °F /  -10.3 °C 30.30in /  1026hPa West 6.0mph /  9.7km/h 11.0mph /  17.7km/h 79% 0.00in /  0mm
12:09 18.3 °F /  -7.6 °C 12.6 °F /  -10.8 °C 30.29in /  1025.6hPa WNW 6.0mph /  9.7km/h 11.0mph /  17.7km/h 78% 0.00in /  0mm
12:14 17.2 °F /  -8.2 °C 11.2 °F /  -11.6 °C 30.30in /  1026hPa WNW 7.0mph /  11.3km/h 14.0mph /  22.5km/h 77% 0.00in /  0mm
12:19 16.9 °F /  -8.4 °C 11.2 °F /  -11.6 °C 30.30in /  1026hPa WNW 5.0mph /  8km/h 12.0mph /  19.3km/h 78% 0.00in /  0mm
12:24 17.3 °F /  -8.2 °C 11.6 °F /  -11.3 °C 30.29in /  1025.6hPa NW 10.0mph /  16.1km/h 11.0mph /  17.7km/h 78% 0.00in /  0mm
12:29 17.1 °F /  -8.3 °C 11.4 °F /  -11.4 °C 30.29in /  1025.6hPa WNW 6.0mph /  9.7km/h 11.0mph /  17.7km/h 78% 0.00in /  0mm
12:34 16.7 °F /  -8.5 °C 11.0 °F /  -11.7 °C 30.29in /  1025.6hPa WNW 6.0mph /  9.7km/h 11.0mph /  17.7km/h 78% 0.00in /  0mm
12:39 16.6 °F /  -8.6 °C 11.2 °F /  -11.6 °C 30.29in /  1025.6hPa WNW 9.0mph /  14.5km/h 10.0mph /  16.1km/h 79% 0.00in /  0mm
12:44 16.5 °F /  -8.6 °C 11.1 °F /  -11.6 °C 30.29in /  1025.6hPa West 7.0mph /  11.3km/h 11.0mph /  17.7km/h 79% 0.00in /  0mm
12:49 16.6 °F /  -8.6 °C 11.2 °F /  -11.6 °C 30.28in /  1025.3hPa NW 7.0mph /  11.3km/h 14.0mph /  22.5km/h 79% 0.00in /  0mm
12:54 16.7 °F /  -8.5 °C 11.3 °F /  -11.5 °C 30.28in /  1025.3hPa West 8.0mph /  12.9km/h 11.0mph /  17.7km/h 79% 0.00in /  0mm
12:59 16.4 °F /  -8.7 °C 10.7 °F /  -11.8 °C 30.29in /  1025.6hPa West 7.0mph /  11.3km/h 12.0mph /  19.3km/h 78% 0.00in /  0mm
13:04 16.7 °F /  -8.5 °C 11.0 °F /  -11.7 °C 30.28in /  1025.3hPa WNW 3.0mph /  4.8km/h 11.0mph /  17.7km/h 78% 0.00in /  0mm
13:09 16.6 °F /  -8.6 °C 10.6 °F /  -11.9 °C 30.28in /  1025.3hPa NW 5.0mph /  8km/h 11.0mph /  17.7km/h 77% 0.00in /  0mm
13:14 16.3 °F /  -8.7 °C 10.4 °F /  -12 °C 30.28in /  1025.3hPa WNW 6.0mph /  9.7km/h 11.0mph /  17.7km/h 77% 0.00in /  0mm
13:19 16.2 °F /  -8.8 °C 10.3 °F /  -12.1 °C 30.28in /  1025.3hPa West 7.0mph /  11.3km/h 12.0mph /  19.3km/h 77% 0.00in /  0mm
13:24 16.7 °F /  -8.5 °C 10.7 °F /  -11.8 °C 30.28in /  1025.3hPa West 7.0mph /  11.3km/h 12.0mph /  19.3km/h 77% 0.00in /  0mm
13:29 16.7 °F /  -8.5 °C 10.7 °F /  -11.8 °C 30.28in /  1025.3hPa West 7.0mph /  11.3km/h 11.0mph /  17.7km/h 77% 0.00in /  0mm
13:34 16.1 °F /  -8.8 °C 9.9 °F /  -12.3 °C 30.28in /  1025.3hPa West 7.0mph /  11.3km/h 12.0mph /  19.3km/h 76% 0.00in /  0mm
13:39 15.6 °F /  -9.1 °C 9.7 °F /  -12.4 °C 30.28in /  1025.3hPa West 6.0mph /  9.7km/h 12.0mph /  19.3km/h 77% 0.00in /  0mm
13:44 15.5 °F /  -9.2 °C 9.6 °F /  -12.4 °C 30.28in /  1025.3hPa West 6.0mph /  9.7km/h 11.0mph /  17.7km/h 77% 0.00in /  0mm
13:49 15.5 °F /  -9.2 °C 9.6 °F /  -12.4 °C 30.28in /  1025.3hPa West 6.0mph /  9.7km/h 11.0mph /  17.7km/h 77% 0.00in /  0mm
13:54 15.8 °F /  -9 °C 10.2 °F /  -12.1 °C 30.28in /  1025.3hPa West 6.0mph /  9.7km/h 8.0mph /  12.9km/h 78% 0.00in /  0mm
13:59 16.1 °F /  -8.8 °C 10.4 °F /  -12 °C 30.28in /  1025.3hPa West 9.0mph /  14.5km/h 9.0mph /  14.5km/h 78% 0.00in /  0mm
14:04 15.9 °F /  -8.9 °C 10.3 °F /  -12.1 °C 30.29in /  1025.6hPa WSW 7.0mph /  11.3km/h 10.0mph /  16.1km/h 78% 0.00in /  0mm
14:09 16.1 °F /  -8.8 °C 10.2 °F /  -12.1 °C 30.29in /  1025.6hPa West 7.0mph /  11.3km/h 10.0mph /  16.1km/h 77% 0.00in /  0mm
14:14 16.1 °F /  -8.8 °C 10.2 °F /  -12.1 °C 30.29in /  1025.6hPa WNW 5.0mph /  8km/h 11.0mph /  17.7km/h 77% 0.00in /  0mm
14:19 16.3 °F /  -8.7 °C 10.1 °F /  -12.2 °C 30.29in /  1025.6hPa West 8.0mph /  12.9km/h 11.0mph /  17.7km/h 76% 0.00in /  0mm
14:24 16.1 °F /  -8.8 °C 9.9 °F /  -12.3 °C 30.30in /  1026hPa West 5.0mph /  8km/h 11.0mph /  17.7km/h 76% 0.00in /  0mm
14:29 16.0 °F /  -8.9 °C 9.8 °F /  -12.3 °C 30.30in /  1026hPa West 5.0mph /  8km/h 11.0mph /  17.7km/h 76% 0.00in /  0mm
14:34 16.0 °F /  -8.9 °C 9.5 °F /  -12.5 °C 30.30in /  1026hPa West 5.0mph /  8km/h 12.0mph /  19.3km/h 75% 0.00in /  0mm
14:39 15.8 °F /  -9 °C 9.3 °F /  -12.6 °C 30.30in /  1026hPa West 5.0mph /  8km/h 12.0mph /  19.3km/h 75% 0.01in /  0.25mm
14:44 15.6 °F /  -9.1 °C 9.1 °F /  -12.7 °C 30.30in /  1026hPa West 6.0mph /  9.7km/h 12.0mph /  19.3km/h 75% 0.01in /  0.25mm
14:49 15.5 °F /  -9.2 °C 8.7 °F /  -12.9 °C 30.30in /  1026hPa WNW 2.0mph /  3.2km/h 11.0mph /  17.7km/h 74% 0.01in /  0.25mm
14:54 15.6 °F /  -9.1 °C 8.8 °F /  -12.9 °C 30.31in /  1026.3hPa West 5.0mph /  8km/h 11.0mph /  17.7km/h 74% 0.01in /  0.25mm
14:59 15.7 °F /  -9.1 °C 8.9 °F /  -12.8 °C 30.31in /  1026.3hPa WNW 5.0mph /  8km/h 11.0mph /  17.7km/h 74% 0.01in /  0.25mm
15:04 15.6 °F /  -9.1 °C 8.8 °F /  -12.9 °C 30.31in /  1026.3hPa WNW 5.0mph /  8km/h 12.0mph /  19.3km/h 74% 0.01in /  0.25mm
15:09 15.6 °F /  -9.1 °C 8.8 °F /  -12.9 °C 30.31in /  1026.3hPa West 5.0mph /  8km/h 9.0mph /  14.5km/h 74% 0.01in /  0.25mm
15:14 16.0 °F /  -8.9 °C 8.9 °F /  -12.8 °C 30.31in /  1026.3hPa WSW 6.0mph /  9.7km/h 10.0mph /  16.1km/h 73% 0.01in /  0.25mm
15:19 16.2 °F /  -8.8 °C 8.8 °F /  -12.9 °C 30.31in /  1026.3hPa West 2.0mph /  3.2km/h 8.0mph /  12.9km/h 72% 0.01in /  0.25mm
15:24 16.3 °F /  -8.7 °C 8.9 °F /  -12.8 °C 30.31in /  1026.3hPa SW 4.0mph /  6.4km/h 9.0mph /  14.5km/h 72% 0.01in /  0.25mm
15:29 16.2 °F /  -8.8 °C 8.4 °F /  -13.1 °C 30.31in /  1026.3hPa WSW 6.0mph /  9.7km/h 9.0mph /  14.5km/h 71% 0.01in /  0.25mm
15:34 15.7 °F /  -9.1 °C 7.6 °F /  -13.6 °C 30.31in /  1026.3hPa WSW 6.0mph /  9.7km/h 12.0mph /  19.3km/h 70% 0.01in /  0.25mm
15:39 15.4 °F /  -9.2 °C 7.4 °F /  -13.7 °C 30.31in /  1026.3hPa West 6.0mph /  9.7km/h 12.0mph /  19.3km/h 70% 0.00in /  0mm
15:44 15.8 °F /  -9 °C 7.4 °F /  -13.7 °C 30.32in /  1026.6hPa West 5.0mph /  8km/h 10.0mph /  16.1km/h 69% 0.00in /  0mm
15:49 15.8 °F /  -9 °C 7.4 °F /  -13.7 °C 30.32in /  1026.6hPa West 5.0mph /  8km/h 10.0mph /  16.1km/h 69% 0.00in /  0mm
15:54 15.7 °F /  -9.1 °C 7.0 °F /  -13.9 °C 30.32in /  1026.6hPa West 5.0mph /  8km/h 10.0mph /  16.1km/h 68% 0.00in /  0mm
15:59 15.7 °F /  -9.1 °C 7.0 °F /  -13.9 °C 30.33in /  1027hPa West 6.0mph /  9.7km/h 13.0mph /  20.9km/h 68% 0.00in /  0mm
16:04 15.8 °F /  -9 °C 7.4 °F /  -13.7 °C 30.33in /  1027hPa SW 4.0mph /  6.4km/h 9.0mph /  14.5km/h 69% 0.00in /  0mm
16:14 15.5 °F /  -9.2 °C 6.8 °F /  -14 °C 30.33in /  1027hPa West 5.0mph /  8km/h 12.0mph /  19.3km/h 68% 0.00in /  0mm
16:19 15.4 °F /  -9.2 °C 6.7 °F /  -14.1 °C 30.33in /  1027hPa West 3.0mph /  4.8km/h 13.0mph /  20.9km/h 68% 0.00in /  0mm
16:24 15.2 °F /  -9.3 °C 6.5 °F /  -14.2 °C 30.33in /  1027hPa SW 3.0mph /  4.8km/h 11.0mph /  17.7km/h 68% 0.00in /  0mm
16:29 15.1 °F /  -9.4 °C 6.8 °F /  -14 °C 30.33in /  1027hPa West 3.0mph /  4.8km/h 10.0mph /  16.1km/h 69% 0.00in /  0mm
16:34 14.8 °F /  -9.6 °C 6.5 °F /  -14.2 °C 30.33in /  1027hPa West 5.0mph /  8km/h 11.0mph /  17.7km/h 69% 0.00in /  0mm
16:39 14.7 °F /  -9.6 °C 6.7 °F /  -14.1 °C 30.33in /  1027hPa West 4.0mph /  6.4km/h 11.0mph /  17.7km/h 70% 0.00in /  0mm
16:44 14.5 °F /  -9.7 °C 6.5 °F /  -14.2 °C 30.33in /  1027hPa WSW 5.0mph /  8km/h 12.0mph /  19.3km/h 70% 0.00in /  0mm
16:49 14.5 °F /  -9.7 °C 6.5 °F /  -14.2 °C 30.33in /  1027hPa WSW 6.0mph /  9.7km/h 12.0mph /  19.3km/h 70% 0.00in /  0mm
16:54 14.3 °F /  -9.8 °C 6.3 °F /  -14.3 °C 30.33in /  1027hPa WSW 5.0mph /  8km/h 11.0mph /  17.7km/h 70% 0.00in /  0mm
16:59 14.1 °F /  -9.9 °C 6.1 °F /  -14.4 °C 30.34in /  1027.3hPa West 3.0mph /  4.8km/h 8.0mph /  12.9km/h 70% 0.00in /  0mm
17:04 14.0 °F /  -10 °C 6.0 °F /  -14.4 °C 30.34in /  1027.3hPa West 4.0mph /  6.4km/h 9.0mph /  14.5km/h 70% 0.00in /  0mm
17:09 13.7 °F /  -10.2 °C 5.7 °F /  -14.6 °C 30.33in /  1027hPa West 3.0mph /  4.8km/h 9.0mph /  14.5km/h 70% 0.00in /  0mm
17:14 13.6 °F /  -10.2 °C 5.9 °F /  -14.5 °C 30.34in /  1027.3hPa West 4.0mph /  6.4km/h 8.0mph /  12.9km/h 71% 0.00in /  0mm
17:19 13.5 °F /  -10.3 °C 5.5 °F /  -14.7 °C 30.34in /  1027.3hPa SW 5.0mph /  8km/h 12.0mph /  19.3km/h 70% 0.00in /  0mm
17:24 13.5 °F /  -10.3 °C 5.5 °F /  -14.7 °C 30.35in /  1027.7hPa West 2.0mph /  3.2km/h 8.0mph /  12.9km/h 70% 0.00in /  0mm
17:29 13.3 °F /  -10.4 °C 5.3 °F /  -14.8 °C 30.34in /  1027.3hPa West 5.0mph /  8km/h 10.0mph /  16.1km/h 70% 0.00in /  0mm
17:34 13.2 °F /  -10.4 °C 5.2 °F /  -14.9 °C 30.35in /  1027.7hPa West 4.0mph /  6.4km/h 10.0mph /  16.1km/h 70% 0.00in /  0mm
17:39 13.0 °F /  -10.6 °C 5.0 °F /  -15 °C 30.35in /  1027.7hPa West 4.0mph /  6.4km/h 11.0mph /  17.7km/h 70% 0.00in /  0mm
17:44 12.9 °F /  -10.6 °C 5.0 °F /  -15 °C 30.35in /  1027.7hPa West 4.0mph /  6.4km/h 11.0mph /  17.7km/h 70% 0.00in /  0mm
17:49 12.8 °F /  -10.7 °C 4.9 °F /  -15.1 °C 30.35in /  1027.7hPa West 4.0mph /  6.4km/h 9.0mph /  14.5km/h 70% 0.00in /  0mm
17:54 12.7 °F /  -10.7 °C 4.8 °F /  -15.1 °C 30.35in /  1027.7hPa West 4.0mph /  6.4km/h 7.0mph /  11.3km/h 70% 0.00in /  0mm
17:59 12.7 °F /  -10.7 °C 4.8 °F /  -15.1 °C 30.35in /  1027.7hPa WSW 3.0mph /  4.8km/h 8.0mph /  12.9km/h 70% 0.00in /  0mm
18:04 12.7 °F /  -10.7 °C 4.8 °F /  -15.1 °C 30.36in /  1028hPa West 4.0mph /  6.4km/h 8.0mph /  12.9km/h 70% 0.00in /  0mm
18:09 12.7 °F /  -10.7 °C 4.8 °F /  -15.1 °C 30.36in /  1028hPa West 3.0mph /  4.8km/h 7.0mph /  11.3km/h 70% 0.00in /  0mm
18:14 12.5 °F /  -10.8 °C 4.6 °F /  -15.2 °C 30.36in /  1028hPa West 4.0mph /  6.4km/h 7.0mph /  11.3km/h 70% 0.00in /  0mm
18:19 12.5 °F /  -10.8 °C 4.6 °F /  -15.2 °C 30.36in /  1028hPa WSW 3.0mph /  4.8km/h 7.0mph /  11.3km/h 70% 0.00in /  0mm
18:24 12.4 °F /  -10.9 °C 4.5 °F /  -15.3 °C 30.36in /  1028hPa WSW 2.0mph /  3.2km/h 8.0mph /  12.9km/h 70% 0.00in /  0mm
18:29 12.3 °F /  -10.9 °C 4.4 °F /  -15.3 °C 30.37in /  1028.3hPa West 3.0mph /  4.8km/h 7.0mph /  11.3km/h 70% 0.00in /  0mm
18:34 12.2 °F /  -11 °C 4.3 °F /  -15.4 °C 30.37in /  1028.3hPa West 3.0mph /  4.8km/h 9.0mph /  14.5km/h 70% 0.00in /  0mm
18:39 12.0 °F /  -11.1 °C 4.1 °F /  -15.5 °C 30.37in /  1028.3hPa West 3.0mph /  4.8km/h 9.0mph /  14.5km/h 70% 0.00in /  0mm
18:44 12.1 °F /  -11.1 °C 4.2 °F /  -15.4 °C 30.36in /  1028hPa WSW 2.0mph /  3.2km/h 6.0mph /  9.7km/h 70% 0.00in /  0mm
18:49 12.1 °F /  -11.1 °C 4.2 °F /  -15.4 °C 30.37in /  1028.3hPa West 2.0mph /  3.2km/h 7.0mph /  11.3km/h 70% 0.00in /  0mm
18:54 12.1 °F /  -11.1 °C 4.2 °F /  -15.4 °C 30.37in /  1028.3hPa West 4.0mph /  6.4km/h 7.0mph /  11.3km/h 70% 0.00in /  0mm
18:59 12.0 °F /  -11.1 °C 4.1 °F /  -15.5 °C 30.37in /  1028.3hPa West 2.0mph /  3.2km/h 8.0mph /  12.9km/h 70% 0.00in /  0mm
19:04 12.0 °F /  -11.1 °C 4.1 °F /  -15.5 °C 30.37in /  1028.3hPa WSW 3.0mph /  4.8km/h 8.0mph /  12.9km/h 70% 0.00in /  0mm
19:09 12.1 °F /  -11.1 °C 4.2 °F /  -15.4 °C 30.37in /  1028.3hPa WSW 4.0mph /  6.4km/h 8.0mph /  12.9km/h 70% 0.00in /  0mm
19:14 12.1 °F /  -11.1 °C 4.2 °F /  -15.4 °C 30.38in /  1028.7hPa WSW 4.0mph /  6.4km/h 9.0mph /  14.5km/h 70% 0.00in /  0mm
19:19 12.1 °F /  -11.1 °C 4.2 °F /  -15.4 °C 30.38in /  1028.7hPa West 4.0mph /  6.4km/h 9.0mph /  14.5km/h 70% 0.00in /  0mm
19:24 12.1 °F /  -11.1 °C 4.2 °F /  -15.4 °C 30.38in /  1028.7hPa West 6.0mph /  9.7km/h 9.0mph /  14.5km/h 70% 0.00in /  0mm
19:29 12.0 °F /  -11.1 °C 4.1 °F /  -15.5 °C 30.38in /  1028.7hPa West 8.0mph /  12.9km/h 11.0mph /  17.7km/h 70% 0.00in /  0mm
19:34 12.0 °F /  -11.1 °C 4.1 °F /  -15.5 °C 30.38in /  1028.7hPa West 5.0mph /  8km/h 11.0mph /  17.7km/h 70% 0.00in /  0mm
19:39 11.9 °F /  -11.2 °C 4.0 °F /  -15.6 °C 30.38in /  1028.7hPa West 5.0mph /  8km/h 11.0mph /  17.7km/h 70% 0.00in /  0mm
19:44 11.8 °F /  -11.2 °C 3.9 °F /  -15.6 °C 30.38in /  1028.7hPa West 4.0mph /  6.4km/h 10.0mph /  16.1km/h 70% 0.00in /  0mm
19:49 11.6 °F /  -11.3 °C 3.7 °F /  -15.7 °C 30.38in /  1028.7hPa West 6.0mph /  9.7km/h 9.0mph /  14.5km/h 70% 0.00in /  0mm
19:54 11.5 °F /  -11.4 °C 3.6 °F /  -15.8 °C 30.38in /  1028.7hPa West 3.0mph /  4.8km/h 11.0mph /  17.7km/h 70% 0.00in /  0mm
19:59 11.4 °F /  -11.4 °C 3.5 °F /  -15.8 °C 30.38in /  1028.7hPa WNW 4.0mph /  6.4km/h 10.0mph /  16.1km/h 70% 0.00in /  0mm
20:04 11.3 °F /  -11.5 °C 3.4 °F /  -15.9 °C 30.38in /  1028.7hPa West 5.0mph /  8km/h 11.0mph /  17.7km/h 70% 0.00in /  0mm
20:09 11.2 °F /  -11.6 °C 3.6 °F /  -15.8 °C 30.38in /  1028.7hPa West 5.0mph /  8km/h 11.0mph /  17.7km/h 71% 0.00in /  0mm
20:14 11.1 °F /  -11.6 °C 3.5 °F /  -15.8 °C 30.38in /  1028.7hPa West 5.0mph /  8km/h 12.0mph /  19.3km/h 71% 0.00in /  0mm
20:19 11.0 °F /  -11.7 °C 3.4 °F /  -15.9 °C 30.38in /  1028.7hPa West 5.0mph /  8km/h 12.0mph /  19.3km/h 71% 0.00in /  0mm
20:24 11.0 °F /  -11.7 °C 3.4 °F /  -15.9 °C 30.38in /  1028.7hPa West 4.0mph /  6.4km/h 9.0mph /  14.5km/h 71% 0.00in /  0mm
20:29 10.9 °F /  -11.7 °C 3.3 °F /  -15.9 °C 30.38in /  1028.7hPa West 4.0mph /  6.4km/h 7.0mph /  11.3km/h 71% 0.00in /  0mm
20:34 11.0 °F /  -11.7 °C 3.7 °F /  -15.7 °C 30.38in /  1028.7hPa West 4.0mph /  6.4km/h 7.0mph /  11.3km/h 72% 0.00in /  0mm
20:39 10.9 °F /  -11.7 °C 3.6 °F /  -15.8 °C 30.38in /  1028.7hPa West 4.0mph /  6.4km/h 7.0mph /  11.3km/h 72% 0.00in /  0mm
20:44 10.9 °F /  -11.7 °C 3.6 °F /  -15.8 °C 30.38in /  1028.7hPa WSW 1.0mph /  1.6km/h 7.0mph /  11.3km/h 72% 0.00in /  0mm
20:49 10.8 °F /  -11.8 °C 3.5 °F /  -15.8 °C 30.38in /  1028.7hPa West 2.0mph /  3.2km/h 4.0mph /  6.4km/h 72% 0.00in /  0mm
20:54 10.7 °F /  -11.8 °C 3.7 °F /  -15.7 °C 30.38in /  1028.7hPa West 3.0mph /  4.8km/h 7.0mph /  11.3km/h 73% 0.00in /  0mm
20:59 10.7 °F /  -11.8 °C 3.7 °F /  -15.7 °C 30.38in /  1028.7hPa West 5.0mph /  8km/h 6.0mph /  9.7km/h 73% 0.00in /  0mm
21:04 10.6 °F /  -11.9 °C 3.6 °F /  -15.8 °C 30.38in /  1028.7hPa West 3.0mph /  4.8km/h 6.0mph /  9.7km/h 73% 0.00in /  0mm
21:09 10.6 °F /  -11.9 °C 3.6 °F /  -15.8 °C 30.38in /  1028.7hPa West 3.0mph /  4.8km/h 5.0mph /  8km/h 73% 0.00in /  0mm
21:14 10.5 °F /  -11.9 °C 3.8 °F /  -15.7 °C 30.38in /  1028.7hPa West 3.0mph /  4.8km/h 7.0mph /  11.3km/h 74% 0.00in /  0mm
21:19 10.5 °F /  -11.9 °C 3.8 °F /  -15.7 °C 30.37in /  1028.3hPa West 3.0mph /  4.8km/h 7.0mph /  11.3km/h 74% 0.00in /  0mm
21:24 10.3 °F /  -12.1 °C 3.7 °F /  -15.7 °C 30.37in /  1028.3hPa West 3.0mph /  4.8km/h 5.0mph /  8km/h 74% 0.00in /  0mm
21:29 10.2 °F /  -12.1 °C 3.6 °F /  -15.8 °C 30.37in /  1028.3hPa West 3.0mph /  4.8km/h 5.0mph /  8km/h 74% 0.00in /  0mm
21:34 10.1 °F /  -12.2 °C 3.5 °F /  -15.8 °C 30.37in /  1028.3hPa West 1.0mph /  1.6km/h 6.0mph /  9.7km/h 74% 0.00in /  0mm
21:39 9.9 °F /  -12.3 °C 3.3 °F /  -15.9 °C 30.37in /  1028.3hPa West 2.0mph /  3.2km/h 4.0mph /  6.4km/h 74% 0.00in /  0mm
21:44 9.8 °F /  -12.3 °C 3.2 °F /  -16 °C 30.37in /  1028.3hPa West 2.0mph /  3.2km/h 6.0mph /  9.7km/h 74% 0.00in /  0mm
21:49 9.7 °F /  -12.4 °C 3.1 °F /  -16.1 °C 30.37in /  1028.3hPa West 1.0mph /  1.6km/h 3.0mph /  4.8km/h 74% 0.00in /  0mm
21:54 9.4 °F /  -12.6 °C 2.8 °F /  -16.2 °C 30.37in /  1028.3hPa West 1.0mph /  1.6km/h 2.0mph /  3.2km/h 74% 0.00in /  0mm
21:59 9.3 °F /  -12.6 °C 2.7 °F /  -16.3 °C 30.37in /  1028.3hPa WSW 1.0mph /  1.6km/h 4.0mph /  6.4km/h 74% 0.00in /  0mm
22:04 9.3 °F /  -12.6 °C 3.0 °F /  -16.1 °C 30.37in /  1028.3hPa WSW 1.0mph /  1.6km/h 4.0mph /  6.4km/h 75% 0.00in /  0mm
22:09 9.4 °F /  -12.6 °C 3.1 °F /  -16.1 °C 30.36in /  1028hPa WSW 2.0mph /  3.2km/h 4.0mph /  6.4km/h 75% 0.00in /  0mm
22:14 9.4 °F /  -12.6 °C 3.1 °F /  -16.1 °C 30.36in /  1028hPa WSW 2.0mph /  3.2km/h 4.0mph /  6.4km/h 75% 0.00in /  0mm
22:19 9.5 °F /  -12.5 °C 3.2 °F /  -16 °C 30.36in /  1028hPa WSW 2.0mph /  3.2km/h 4.0mph /  6.4km/h 75% 0.00in /  0mm
22:24 9.2 °F /  -12.7 °C 2.9 °F /  -16.2 °C 30.36in /  1028hPa WSW 1.0mph /  1.6km/h 3.0mph /  4.8km/h 75% 0.00in /  0mm
22:29 9.0 °F /  -12.8 °C 2.7 °F /  -16.3 °C 30.36in /  1028hPa WSW 1.0mph /  1.6km/h 3.0mph /  4.8km/h 75% 0.00in /  0mm
22:34 8.6 °F /  -13 °C 2.3 °F /  -16.5 °C 30.35in /  1027.7hPa Calm   2.0mph /  3.2km/h 75% 0.00in /  0mm
22:39 8.0 °F /  -13.3 °C 2.0 °F /  -16.7 °C 30.35in /  1027.7hPa Calm     76% 0.00in /  0mm
22:44 7.6 °F /  -13.6 °C 1.6 °F /  -16.9 °C 30.35in /  1027.7hPa Calm     76% 0.00in /  0mm
22:49 7.0 °F /  -13.9 °C 1.3 °F /  -17.1 °C 30.35in /  1027.7hPa Calm   2.0mph /  3.2km/h 77% 0.00in /  0mm
22:54 6.9 °F /  -13.9 °C 1.2 °F /  -17.1 °C 30.34in /  1027.3hPa Calm   2.0mph /  3.2km/h 77% 0.00in /  0mm
22:59 6.7 °F /  -14.1 °C 1.3 °F /  -17.1 °C 30.35in /  1027.7hPa Calm     78% 0.00in /  0mm
23:04 6.5 °F /  -14.2 °C 1.1 °F /  -17.2 °C 30.35in /  1027.7hPa Calm     78% 0.00in /  0mm
23:09 6.2 °F /  -14.3 °C 0.8 °F /  -17.3 °C 30.35in /  1027.7hPa Calm     78% 0.00in /  0mm
23:14 5.9 °F /  -14.5 °C 0.8 °F /  -17.3 °C 30.35in /  1027.7hPa Calm     79% 0.00in /  0mm
23:19 5.6 °F /  -14.7 °C 0.5 °F /  -17.5 °C 30.35in /  1027.7hPa Calm     79% 0.00in /  0mm
23:24 5.5 °F /  -14.7 °C 0.4 °F /  -17.6 °C 30.35in /  1027.7hPa Calm     79% 0.00in /  0mm
23:29 5.5 °F /  -14.7 °C 0.7 °F /  -17.4 °C 30.35in /  1027.7hPa Calm     80% 0.00in /  0mm
23:34 5.7 °F /  -14.6 °C 0.9 °F /  -17.3 °C 30.35in /  1027.7hPa Calm     80% 0.00in /  0mm
23:39 5.4 °F /  -14.8 °C 0.6 °F /  -17.4 °C 30.35in /  1027.7hPa Calm     80% 0.00in /  0mm
23:44 5.4 °F /  -14.8 °C 0.8 °F /  -17.3 °C 30.35in /  1027.7hPa Calm     81% 0.00in /  0mm
23:49 5.4 °F /  -14.8 °C 0.8 °F /  -17.3 °C 30.35in /  1027.7hPa Calm     81% 0.00in /  0mm
23:54 5.7 °F /  -14.6 °C 1.1 °F /  -17.2 °C 30.34in /  1027.3hPa Calm     81% 0.00in /  0mm
23:59 5.8 °F /  -14.6 °C 1.2 °F /  -17.1 °C 30.35in /  1027.7hPa Calm     81% 0.00in /  0mm
Buffalo, New York, USA
Compliments of Weather Underground - 2.5 mb